Joe Foss Field

KFSD · South Dakota, United States

METAR history KFSD · Joe Foss Field

Below you see METARs of the last few days. Select a year to browse through older METARs, from the year 2007 onwards.

April 18, 2024

Time Code Weather Temp. Visibility Ceiling Wind METAR/SPECI
04:56
V
7 °C 10 mi 14,000 ft 320° 320° 5 kt METAR KFSD 180956Z 32005KT 10SM OVC140 07/00 A3010 RMK AO2 SLP198 T00720000 $
03:56
V
8 °C 10 mi 11,000 ft 330° 330° 11 kt METAR KFSD 180856Z AUTO 33011KT 10SM FEW055 SCT070 BKN110 08/01 A3008 RMK AO2 RAB25E35 SLP187 P0000 60000 T00780006 51011 $
02:56
V
9 °C 10 mi 7,000 ft 280° 280° 7 kt METAR KFSD 180756Z AUTO 28007KT 10SM OVC070 09/04 A3006 RMK AO2 RAE00 SLP182 P0000 T00890044 $
01:56
V
9 °C 10 mi 4,800 ft 260° 260° 5 kt METAR KFSD 180656Z AUTO 26005KT 10SM -RA BKN048 OVC060 09/05 A3006 RMK AO2 RAE03B36 SLP182 P0000 T00940050 $
00:56
V
9 °C 10 mi 5,500 ft 260° 260° 5 kt METAR KFSD 180556Z AUTO 26005KT 10SM -RA FEW041 OVC055 09/04 A3004 RMK AO2 SLP177 P0002 60003 T00940044 10144 20094 401670078 51013 $

April 17, 2024

Time Code Weather Temp. Visibility Ceiling Wind METAR/SPECI
23:56
V
10 °C 10 mi 5,500 ft 300° 300° 7 kt METAR KFSD 180456Z 30007KT 10SM -RA BKN055 OVC065 10/04 A3004 RMK AO2 SLP175 P0001 T01000044 $
22:56
V
11 °C 10 mi 4,800 ft 300° 300° 8 kt METAR KFSD 180356Z 30008KT 10SM -RA OVC048 11/04 A3002 RMK AO2 RAB24 SLP171 P0000 T01110044 $
21:56
V
12 °C 10 mi 7,500 ft 320° 320° 9 kt METAR KFSD 180256Z 32009KT 10SM BKN075 BKN095 12/03 A3000 RMK AO2 SLP165 T01170033 53019 $
20:56
V
13 °C 10 mi 8,000 ft 330° 330° 9 kt METAR KFSD 180156Z 33009KT 10SM FEW060 OVC080 13/04 A2998 RMK AO2 SLP156 T01280044 $
19:56
V
13 °C 10 mi 9,000 ft 330° 330° 13 kt METAR KFSD 180056Z 33013KT 10SM SCT045 BKN090 OVC100 13/04 A2997 RMK AO2 SLP153 T01330044 $

April 16, 2024

Time Code Weather Temp. Visibility Ceiling Wind METAR/SPECI
18:56
V
14 °C 10 mi 18,000 ft 310° 310° 15 kt METAR KFSD 172356Z 31015KT 10SM FEW045 BKN180 14/04 A2995 RMK AO2 SLP145 T01440039 10167 20133 53016 $

April 17, 2024

Time Code Weather Temp. Visibility Ceiling Wind METAR/SPECI
17:56
V
15 °C 10 mi 18,000 ft 300° 300° 13 kt METAR KFSD 172256Z 30013KT 10SM FEW045 BKN180 15/04 A2993 RMK AO2 SLP137 VIRGA W T01500044 $
16:56
V
16 °C 10 mi 17,000 ft 310° 310° 13 - 22 kt METAR KFSD 172156Z 31013G22KT 10SM FEW026 BKN170 16/05 A2990 RMK AO2 PK WND 33028/2104 SLP129 T01560050
15:56
V
16 °C 10 mi 16,000 ft 310° 310° 17 - 24 kt METAR KFSD 172056Z 31017G24KT 10SM FEW028 BKN160 16/05 A2990 RMK AO2 SLP126 T01610050 51013
14:56
V
16 °C 10 mi 25,000 ft 290° 290° 13 - 22 kt METAR KFSD 171956Z 29013G22KT 10SM FEW028 BKN250 16/06 A2989 RMK AO2 PK WND 32027/1859 SLP123 T01560056
13:56
V
15 °C 10 mi 25,000 ft 300° 300° 20 - 28 kt METAR KFSD 171856Z 30020G28KT 10SM SCT028 BKN250 15/05 A2988 RMK AO2 PK WND 30028/1855 SLP120 T01500050
12:56
V
13 °C 10 mi 25,000 ft 300° 300° 16 - 26 kt METAR KFSD 171756Z 30016G26KT 10SM SCT024 BKN250 13/06 A2986 RMK AO2 PK WND 33027/1724 SLP113 60000 T01330056 10133 20078 51022
12:02
V
13 °C 10 mi 25,000 ft 330° 330° 18 kt METAR KFSD 171702Z 33018KT 10SM SCT024 BKN250 13/05 A2985 RMK AO2 PK WND 33026/1657 T01330050
11:56
M
13 °C 10 mi 2,400 ft 320° 320° 18 - 26 kt METAR KFSD 171656Z 32018G26KT 10SM BKN024 BKN250 13/06 A2985 RMK AO2 PK WND 32030/1600 SLP109 T01280056
10:56
M
10 °C 10 mi 1,800 ft 320° 320° 21 - 31 kt METAR KFSD 171556Z 32021G31KT 10SM BKN018 10/06 A2983 RMK AO2 PK WND 32035/1532 SLP105 T01000056
09:56
M
10 °C 10 mi 1,900 ft 320° 320° 17 - 30 kt METAR KFSD 171456Z 32017G30KT 10SM BKN019 OVC023 10/06 A2979 RMK AO2 PK WND 31031/1442 DZE13 SLP091 P0000 60000 T01000056 51028
09:38
M
10 °C 10 mi 1,500 ft 320° 320° 22 - 29 kt METAR KFSD 171438Z 32022G29KT 10SM BKN015 OVC021 10/06 A2979 RMK AO2 PK WND 30030/1419 DZE13 P0000 T01000061
08:56
M
9 °C 7 mi 1,300 ft 300° 300° 18 - 29 kt METAR KFSD 171356Z 30018G29KT 7SM -DZ BKN013 OVC019 09/06 A2977 RMK AO2 PK WND 30029/1349 DZB21 SLP085 P0000 T00890061
08:21
M
9 °C 10 mi 1,300 ft 300° 300° 13 - 23 kt METAR KFSD 171321Z 30013G23KT 10SM -DZ BKN013 OVC020 09/06 A2977 RMK AO2 DZB21 P0000 T00890061
07:56
M
9 °C 10 mi 2,200 ft 300° 300° 16 - 26 kt METAR KFSD 171256Z 30016G26KT 10SM FEW014 OVC022 09/06 A2975 RMK AO2 PK WND 31026/1251 SLP078 T00890056
06:56
M
8 °C 10 mi 1,800 ft 300° 300° 14 - 22 kt METAR KFSD 171156Z 30014G22KT 10SM BKN018 BKN070 BKN210 08/04 A2971 RMK AO2 PK WND 33031/1111 SLP063 60000 70082 T00780044 10106 20078 53044
06:07
V
8 °C 10 mi 7,500 ft 320° 320° 17 - 28 kt METAR KFSD 171107Z 32017G28KT 10SM SCT015 BKN075 BKN210 08/05 A2965 RMK AO2 PK WND 30028/1058 T00830050
05:56
M
8 °C 10 mi 2,200 ft 320° 320° 19 - 28 kt METAR KFSD 171056Z 32019G28KT 10SM SCT013 BKN022 08/05 A2964 RMK AO2 PK WND 31031/0958 RAE11 SLP040 P0000 T00830050
04:56
M
9 °C 10 mi 1,400 ft 310° 310° 20 - 32 kt METAR KFSD 170956Z 31020G32KT 10SM -RA OVC014 09/06 A2961 RMK AO2 PK WND 31032/0948 RAB37 SLP030 P0000 T00890061
03:56
M
9 °C 10 mi 1,200 ft 310° 310° 19 - 28 kt METAR KFSD 170856Z AUTO 31019G28KT 10SM OVC012 09/07 A2957 RMK AO2 PK WND 29028/0854 SLP016 60000 T00940067 51041
02:56
M
10 °C 10 mi 1,100 ft 310° 310° 13 - 24 kt METAR KFSD 170756Z AUTO 31013G24KT 10SM OVC011 10/07 A2953 RMK AO2 PK WND 32028/0721 SLP002 T01000072
02:41
M
10 °C 10 mi 1,000 ft 310° 310° 14 - 24 kt METAR KFSD 170741Z AUTO 31014G24KT 10SM OVC010 10/07 A2952 RMK AO2 PK WND 32028/0721 T01000072
01:56
I
10 °C 10 mi 800 ft 320° 320° 19 - 29 kt METAR KFSD 170656Z AUTO 32019G29KT 10SM OVC008 10/08 A2950 RMK AO2 PK WND 33031/0612 RAB12E39 SLP991 P0000 T01000078
00:56
I
11 °C 10 mi 800 ft 320° 320° 20 - 28 kt METAR KFSD 170556Z AUTO 32020G28KT 10SM OVC008 11/08 A2944 RMK AO2 PK WND 31029/0520 SLP971 60000 T01060078 10144 20106 402060106 53022

April 16, 2024

Time Code Weather Temp. Visibility Ceiling Wind METAR/SPECI
23:56
I
11 °C 10 mi 600 ft 300° 300° 13 kt METAR KFSD 170456Z 30013KT 10SM OVC006 11/09 A2941 RMK AO2 SLP959 T01110089
23:22
I
11 °C 10 mi 600 ft 310° 310° 13 kt METAR KFSD 170422Z 31013KT 10SM BKN006 OVC016 11/09 A2940 RMK AO2 T01110089
22:56
M
12 °C 10 mi 1,600 ft 290° 290° 8 kt METAR KFSD 170356Z 29008KT 10SM SCT007 OVC016 12/09 A2939 RMK AO2 SLP953 T01170094
22:21
V
12 °C 9 mi 4,000 ft 310° 310° 11 kt METAR KFSD 170321Z 31011KT 9SM FEW009 BKN040 OVC065 12/10 A2938 RMK AO2 T01220100
21:56
V
13 °C 10 mi 6,000 ft 300° 300° 7 kt METAR KFSD 170256Z 30007KT 10SM FEW038 OVC060 13/11 A2937 RMK AO2 SLP947 60000 T01280106 53017
21:34
V
13 °C 10 mi 3,800 ft 280° 280° 6 kt METAR KFSD 170234Z 28006KT 10SM FEW014 BKN038 OVC060 13/11 A2936 RMK AO2 T01280106
21:15
M
13 °C 10 mi 1,400 ft 260° 260° 3 kt METAR KFSD 170215Z 26003KT 10SM SCT007 BKN014 OVC055 13/11 A2936 RMK AO2 T01280106
21:03
V
13 °C 10 mi 4,900 ft 200° 200° 3 kt METAR KFSD 170203Z 20003KT 10SM FEW007 BKN049 OVC060 13/11 A2935 RMK AO2 T01280106
20:56
M
13 °C 10 mi 1,400 ft 180° 180° 5 kt METAR KFSD 170156Z 18005KT 10SM BKN014 BKN049 OVC060 13/11 A2935 RMK AO2 SLP938 T01280106
20:39
M
13 °C 10 mi 1,400 ft 180° 180° 6 kt METAR KFSD 170139Z 18006KT 10SM BKN014 OVC060 13/10 A2934 RMK AO2 T01280100
20:24
V
13 °C 10 mi 6,000 ft 180° 180° 6 kt METAR KFSD 170124Z 18006KT 10SM SCT013 OVC060 13/10 A2933 RMK AO2 T01280100
19:56
M
13 °C 10 mi 1,300 ft 190° 190° 5 kt METAR KFSD 170056Z 19005KT 10SM BKN013 BKN023 OVC055 13/10 A2933 RMK AO2 RAE00B19E32 TSE10 SLP932 P0000 T01330100
19:10
M
14 °C 10 mi 2,000 ft 160° 160° 5 kt METAR KFSD 170010Z 16005KT 10SM FEW014 BKN020 OVC070 14/11 A2933 RMK AO2 RAE00 TSE10 P0000 T01390106
18:09
V
14 °C 10 mi 4,900 ft 120° 120° 3 kt METAR KFSD 162309Z 12003KT 10SM SCT009 SCT013 BKN049 14/12 A2930 RMK AO2 T01440117
17:56
I
14 °C 10 mi 900 ft 100° 100° 6 kt METAR KFSD 162256Z 10006KT 10SM BKN009 BKN060 14/12 A2930 RMK AO2 SLP920 T01440117
16:56
V
13 °C 10 mi 10,000 ft 050° 050° 10 kt METAR KFSD 162156Z 05010KT 10SM SCT008 BKN100 BKN120 13/11 A2927 RMK AO2 RAE44 TSE08 SLP912 P0003 T01280106
16:09
V
12 °C 10 mi 7,000 ft 080° 080° 6 kt METAR KFSD 162109Z 08006KT 10SM RA FEW008 OVC070 12/10 A2931 RMK AO2 LTG DSNT NE TSE08 P0002 T01220100
15:56
V
12 °C 6 mi 6,000 ft 360° 360° 4 kt METAR KFSD 162056Z 36004KT 6SM TSRA BR SCT008CB OVC060 12/10 A2931 RMK AO2 LTG DSNT NE AND E TSB37 SLP924 OCNL LTGIC OHD TS OHD MOV NW P0006 60022 T01220100 58010
15:38
I
13 °C 9 mi 800 ft 070° 070° 5 kt METAR KFSD 162038Z 07005KT 9SM -TSRA BKN008CB BKN055 OVC070 13/11 A2932 RMK AO2 LTG DSNT E TSB37 OCNL LTGIC OHD TS OHD MOV NW P0002 T01280106
15:09
I
13 °C 9 mi 600 ft 130° 130° 4 kt METAR KFSD 162009Z 13004KT 9SM -RA BKN006 BKN029 OVC046 13/11 A2934 RMK AO2 LTG DSNT SE P0001 T01280111
15:02
M
13 °C 4 mi 3,100 ft 130° 130° 3 kt METAR KFSD 162002Z 13003KT 4SM -RA BR FEW006 BKN031 OVC046 13/11 A2934 RMK AO2 LTG DSNT SE P0001 T01280111
14:56
I
13 °C 3 mi 3,600 ft 120° 120° 3 kt METAR KFSD 161956Z 12003KT 3SM -RA BR FEW010 BKN036 OVC049 13/11 A2934 RMK AO2 LTG DSNT SE SLP933 P0007 T01330111
14:36
I
13 °C 2 mi 3,400 ft 080° 080° 7 kt METAR KFSD 161936Z 08007KT 2SM -RA BR BKN034 OVC043 13/11 A2934 RMK AO2 TWR VIS 2 1/2 P0006 T01280106
13:56
M
13 °C 3 mi 4,600 ft 080° 080° 8 kt METAR KFSD 161856Z 08008KT 3SM -RA BR SCT006 BKN046 OVC060 13/11 A2934 RMK AO2 LTG DSNT S SLP932 P0009 T01280111
13:13
I
12 °C 2 mi 5,000 ft 100° 100° 16 - 24 kt METAR KFSD 161813Z 10016G24KT 2SM +RA BR SCT008 SCT044 OVC050 12/10 A2935 RMK AO2 TWR VIS 3 LTG DSNT SE P0002 T01220100
12:56
V
13 °C 10 mi 6,000 ft 080° 080° 13 kt METAR KFSD 161756Z 08013KT 10SM -RA FEW008 BKN060 OVC110 13/11 A2935 RMK AO2 LTG DSNT SE AND SW RAE08B29E38B55 SLP937 P0000 60057 T01330106 10144 20122 55019
11:56
V
12 °C 6 mi 7,000 ft 010° 010° 11 kt METAR KFSD 161656Z 01011KT 6SM -RA BR FEW008 SCT029 OVC070 12/10 A2933 RMK AO2 PK WND 11031/1557 WSHFT 1608 SLP930 TSB16E42 P0030 T01220100
11:29
I
13 °C 3 mi 800 ft Var Var 6 - 20 kt METAR KFSD 161629Z VRB06G20KT 3SM -TSRA BR OVC008CB 13/11 A2945 RMK AO2 PK WND 11031/1557 WSHFT 1608 LTG DSNT SE AND S OCNL LTGIC OHD TSB16 TS OHD MOV NE P0016 T01280111
11:22
L
13 °C ¾ mi 800 ft 190° 190° 13 - 27 kt METAR KFSD 161622Z 19013G27KT 3/4SM +TSRA BR OVC008CB 13/11 A2944 RMK AO2 PK WND 11031/1557 WSHFT 1608 TWR VIS 1 LTG DSNT SE AND S PRESRR OCNL LTGIC OHD TSB16 TS OHD MOV NE P0011 T01280106 RVRNO
11:10
I
13 °C 4 mi 800 ft 110° 110° 21 - 29 kt METAR KFSD 161610Z 11021G29KT 4SM VCTS RA BR OVC008 13/11 A2940 RMK AO2 PK WND 11031/1557 LTG DSNT S P0002 T01280106
10:56
I
13 °C 5 mi 800 ft 100° 100° 18 - 31 kt METAR KFSD 161556Z 10018G31KT 5SM -RA BR OVC008 13/11 A2940 RMK AO2 PK WND 11031/1556 LTG DSNT S RAB34 SLP951 P0000 T01330111
09:56
I
14 °C 10 mi 900 ft 100° 100° 18 - 26 kt METAR KFSD 161456Z 10018G26KT 10SM BKN009 OVC018 14/12 A2941 RMK AO2 PK WND 09029/1424 SLP955 RAB15E28B42E52 P0000 60027 T01440122 58029
09:28
I
13 °C 10 mi 900 ft 100° 100° 20 - 29 kt METAR KFSD 161428Z 10020G29KT 10SM OVC009 13/11 A2945 RMK AO2 PK WND 09029/1424 LTG DSNT W RAB15E28 P0000 T01330111
09:05
M
13 °C 10 mi 1,400 ft 090° 090° 19 - 27 kt METAR KFSD 161405Z 09019G27KT 10SM FEW009 OVC014 13/11 A2947 RMK AO2 PK WND 09027/1401 LTG DSNT NE AND W PRESFR T01330106
08:56
M
13 °C 10 mi 1,600 ft 090° 090° 20 - 27 kt METAR KFSD 161356Z 09020G27KT 10SM FEW009 OVC016 13/11 A2948 RMK AO2 PK WND 09027/1355 LTG DSNT NE AND SW AND W RAE41 TSE02B09E25 SLP979 P0008 T01330111
08:25
M
14 °C 7 mi 1,900 ft 100° 100° 16 - 27 kt METAR KFSD 161325Z 10016G27KT 7SM -RA FEW009 BKN019 OVC060 14/12 A2951 RMK AO2 PK WND 11027/1317 LTG DSNT NE TSE02B09E25 P0007 T01390117 $
08:10
I
14 °C 3 mi 3,500 ft 110° 110° 16 - 21 kt METAR KFSD 161310Z 11016G21KT 3SM -TSRA FEW015 BKN035 OVC075CB 14/12 A2951 RMK AO2 LTG DSNT NW-E TSE02B09 OCNL LTGIC E TS E MOV N P0005 T01390117
08:02
I
13 °C 3 mi 7,500 ft 110° 110° 11 - 23 kt METAR KFSD 161302Z 11011G23KT 3SM VCTS RA BR FEW012 SCT029 OVC075 13/11 A2951 RMK AO2 LTG DSNT W-NE TSE02 P0002 T01330111
07:56
I
13 °C 2 mi 2,400 ft 110° 110° 15 - 24 kt METAR KFSD 161256Z 11015G24KT 2SM -TSRA BR FEW012 BKN024 OVC060CB 13/11 A2952 RMK AO2 PK WND 06032/1237 SFC VIS 3 LTG DSNT ALQDS SLP990 OCNL LTGICCC OHD RAB19 TSB25 TS OHD MOV N P0019 T01330111
07:31
I
13 °C 2 mi 2,600 ft 110° 110° 14 - 28 kt METAR KFSD 161231Z 11014G28KT 2SM TSRA FEW012 OVC026CB 13/10 A2956 RMK AO2 PK WND 12028/1224 LTG DSNT ALQDS OCNL LTGICCC OHD RAB19 TSB25 TS OHD MOV N P0003 T01280100 $
07:01
M
13 °C 10 mi 2,800 ft 100° 100° 16 - 27 kt METAR KFSD 161201Z 10016G27KT 10SM FEW012 BKN028 OVC170 13/10 A2952 RMK AO2 PK WND 09027/1158 LTG DSNT SE-SW OCNL LTGIC DSNT S T01280100 $
06:56
V
13 °C 10 mi 17,000 ft 090° 090° 17 - 26 kt METAR KFSD 161156Z 09017G26KT 10SM FEW012 SCT028 OVC170 13/10 A2950 RMK AO2 PK WND 08028/1115 LTG DSNT SE-SW SLP984 OCNL LTGICCC DSNT S 60049 70049 T01280100 10206 20128 58030 $
06:07
M
13 °C 10 mi 2,800 ft 090° 090° 18 kt METAR KFSD 161107Z 09018KT 10SM BKN028 OVC050 13/11 A2952 RMK AO2 T01330106 $
05:56
V
14 °C 10 mi 4,500 ft 100° 100° 16 kt METAR KFSD 161056Z 10016KT 10SM SCT035 BKN045 OVC055 14/11 A2951 RMK AO2 LTG DSNT E RAE44 TSE32 SLP987 P0019 T01390111 $
05:33
V
13 °C 9 mi 6,000 ft 090° 090° 12 kt METAR KFSD 161033Z 09012KT 9SM -RA FEW025 BKN060 OVC100 13/12 A2956 RMK AO2 LTG DSNT NE AND E TSE32 PRESFR P0019 T01330117 $
04:56
V
13 °C 8 mi 10,000 ft 090° 090° 13 kt METAR KFSD 160956Z 09013KT 8SM -TSRA FEW025 FEW060CB OVC100 13/11 A2962 RMK AO2 PK WND 11037/0912 LTG DSNT NE-S TSB45 SLP021 FRQ LTGICCCCG OHD TS OHD MOV N P0006 T01280106 $
03:56
V
13 °C 6 mi 8,000 ft 110° 110° 23 - 35 kt METAR KFSD 160856Z AUTO 11023G35KT 6SM VCTS RA OVC080 13/10 A2960 RMK AO2 PK WND 11035/0850 LTG DSNT ALQDS TSB0757E12 PRESFR SLP015 P0015 60024 T01330100 58009
03:18
V
14 °C 5 mi 6,500 ft 140° 140° 20 - 29 kt METAR KFSD 160818Z AUTO 14020G29KT 5SM VCTS RA BKN065 OVC085 14/09 A2965 RMK AO2 PK WND 15029/0809 LTG DSNT ALQDS TSB0757E12 P0007 T01390094
03:03
V
14 °C 5 mi 7,000 ft 160° 160° 17 - 26 kt METAR KFSD 160803Z AUTO 16017G26KT 5SM TSRA BKN070 OVC090 14/09 A2966 RMK AO2 LTG DSNT ALQDS TSB0757 P0002 T01440094
02:56
V
15 °C 6 mi 9,000 ft 150° 150° 19 - 26 kt METAR KFSD 160756Z AUTO 15019G26KT 6SM VCTS RA SCT075 OVC090 15/09 A2966 RMK AO2 PK WND 14030/0707 LTG DSNT ALQDS TSB08E23 SLP036 P0007 T01500089
02:29
V
16 °C 10 mi 9,000 ft 150° 150° 16 - 26 kt METAR KFSD 160729Z AUTO 15016G26KT 10SM VCTS -RA OVC090 16/08 A2965 RMK AO2 PK WND 14030/0707 LTG DSNT ALQDS TSB08E23 P0002 T01560078
02:14
V
16 °C 10 mi 9,500 ft 120° 120° 15 - 30 kt METAR KFSD 160714Z AUTO 12015G30KT 10SM -TSRA OVC095 16/07 A2963 RMK AO2 PK WND 14030/0707 LTG DSNT ALQDS TSB08 P0000 T01560067
01:56
V
16 °C 10 mi 10,000 ft 120° 120° 18 - 31 kt METAR KFSD 160656Z AUTO 12018G31KT 10SM VCTS -RA OVC100 16/07 A2963 RMK AO2 PK WND 12042/0626 LTG DSNT ALQDS RAB24 TSB23E42 SLP025 P0002 T01560072
01:29
V
17 °C 9 mi 5,000 ft 130° 130° 26 - 42 kt METAR KFSD 160629Z AUTO 13026G42KT 9SM TSRA FEW041 BKN050 OVC075 17/06 A2963 RMK AO2 PK WND 12042/0626 LTG DSNT ALQDS RAB24 TSB23 PRESRR P0002 T01720056
00:56
V
20 °C 10 mi 11,000 ft 120° 120° 18 - 32 kt METAR KFSD 160556Z AUTO 12018G32KT 10SM FEW046 FEW055 BKN110 20/02 A2962 RMK AO2 PK WND 11034/0539 LTG DSNT W AND NW SLP023 T02000017 10267 20200 402830083 58024
Report a change